sensor_id;sensor_type;location;lat;lon;timestamp;P1;P2;P0
44933;PMS3003;30667;43.614;1.442;2024-03-02T00:01:09;33.50;29.00;19.50
44933;PMS3003;30667;43.614;1.442;2024-03-02T00:03:38;32.00;29.40;19.60
44933;PMS3003;30667;43.614;1.442;2024-03-02T00:06:04;32.60;28.20;21.20
44933;PMS3003;30667;43.614;1.442;2024-03-02T00:08:29;33.00;32.00;22.00
44933;PMS3003;30667;43.614;1.442;2024-03-02T00:10:59;35.25;30.75;22.00
44933;PMS3003;30667;43.614;1.442;2024-03-02T00:13:29;32.40;27.20;19.40
44933;PMS3003;30667;43.614;1.442;2024-03-02T00:15:57;31.60;29.20;20.00
44933;PMS3003;30667;43.614;1.442;2024-03-02T00:18:27;32.00;28.25;19.50
44933;PMS3003;30667;43.614;1.442;2024-03-02T00:20:56;32.80;30.00;19.80
44933;PMS3003;30667;43.614;1.442;2024-03-02T00:23:22;34.20;32.60;20.00
44933;PMS3003;30667;43.614;1.442;2024-03-02T00:25:49;30.40;27.80;19.00
44933;PMS3003;30667;43.614;1.442;2024-03-02T00:28:25;34.80;30.20;19.60
44933;PMS3003;30667;43.614;1.442;2024-03-02T00:33:22;36.80;30.80;21.60
44933;PMS3003;30667;43.614;1.442;2024-03-02T00:35:48;32.20;30.80;19.80
44933;PMS3003;30667;43.614;1.442;2024-03-02T00:38:15;36.00;32.80;22.80
44933;PMS3003;30667;43.614;1.442;2024-03-02T00:40:41;29.25;27.75;19.25
44933;PMS3003;30667;43.614;1.442;2024-03-02T00:43:11;32.40;29.40;19.00
44933;PMS3003;30667;43.614;1.442;2024-03-02T00:45:44;33.20;30.00;19.80
44933;PMS3003;30667;43.614;1.442;2024-03-02T00:48:09;31.75;28.00;19.75
44933;PMS3003;30667;43.614;1.442;2024-03-02T00:50:34;30.50;28.00;19.00
44933;PMS3003;30667;43.614;1.442;2024-03-02T00:53:01;31.00;27.50;17.75
44933;PMS3003;30667;43.614;1.442;2024-03-02T00:55:27;33.60;28.00;19.00
44933;PMS3003;30667;43.614;1.442;2024-03-02T00:57:52;26.25;24.75;17.75
44933;PMS3003;30667;43.614;1.442;2024-03-02T01:00:18;20.75;20.50;14.00
44933;PMS3003;30667;43.614;1.442;2024-03-02T01:02:43;24.50;23.50;18.00
44933;PMS3003;30667;43.614;1.442;2024-03-02T01:05:10;27.20;25.80;18.00
44933;PMS3003;30667;43.614;1.442;2024-03-02T01:07:37;27.50;23.75;15.00
44933;PMS3003;30667;43.614;1.442;2024-03-02T01:10:03;26.60;23.60;15.00
44933;PMS3003;30667;43.614;1.442;2024-03-02T01:12:30;26.80;23.20;14.40
44933;PMS3003;30667;43.614;1.442;2024-03-02T01:14:55;25.50;20.75;13.75
44933;PMS3003;30667;43.614;1.442;2024-03-02T01:17:21;22.25;19.50;14.25
44933;PMS3003;30667;43.614;1.442;2024-03-02T01:19:46;22.50;21.25;14.00
44933;PMS3003;30667;43.614;1.442;2024-03-02T01:22:11;24.25;22.50;14.00
44933;PMS3003;30667;43.614;1.442;2024-03-02T01:24:37;22.40;20.00;15.00
44933;PMS3003;30667;43.614;1.442;2024-03-02T01:27:03;24.00;22.50;14.00
44933;PMS3003;30667;43.614;1.442;2024-03-02T01:29:28;24.75;20.75;14.25
44933;PMS3003;30667;43.614;1.442;2024-03-02T01:31:55;24.00;20.20;13.40
44933;PMS3003;30667;43.614;1.442;2024-03-02T01:34:20;23.50;21.00;13.00
44933;PMS3003;30667;43.614;1.442;2024-03-02T01:36:46;19.60;18.60;11.80
44933;PMS3003;30667;43.614;1.442;2024-03-02T01:39:11;24.50;23.50;14.00
44933;PMS3003;30667;43.614;1.442;2024-03-02T01:41:37;20.00;19.00;14.00
44933;PMS3003;30667;43.614;1.442;2024-03-02T01:44:02;22.25;20.75;14.00
44933;PMS3003;30667;43.614;1.442;2024-03-02T01:46:28;21.00;19.75;12.75
44933;PMS3003;30667;43.614;1.442;2024-03-02T01:48:53;21.50;19.50;14.00
44933;PMS3003;30667;43.614;1.442;2024-03-02T01:51:19;23.25;19.25;13.00
44933;PMS3003;30667;43.614;1.442;2024-03-02T01:53:44;21.75;19.00;11.00
44933;PMS3003;30667;43.614;1.442;2024-03-02T01:56:10;23.00;19.00;13.00
44933;PMS3003;30667;43.614;1.442;2024-03-02T01:58:36;19.00;16.20;10.00
44933;PMS3003;30667;43.614;1.442;2024-03-02T02:01:01;22.50;20.00;11.25
44933;PMS3003;30667;43.614;1.442;2024-03-02T02:03:26;19.75;18.50;11.00
44933;PMS3003;30667;43.614;1.442;2024-03-02T02:05:52;21.00;18.00;11.00
44933;PMS3003;30667;43.614;1.442;2024-03-02T02:08:17;20.00;18.25;11.50
44933;PMS3003;30667;43.614;1.442;2024-03-02T02:10:43;16.25;15.00;10.00
44933;PMS3003;30667;43.614;1.442;2024-03-02T02:13:08;17.50;16.50;9.25
44933;PMS3003;30667;43.614;1.442;2024-03-02T02:15:34;16.00;16.00;9.50
44933;PMS3003;30667;43.614;1.442;2024-03-02T02:18:01;15.80;13.60;8.40
44933;PMS3003;30667;43.614;1.442;2024-03-02T02:20:26;15.25;14.25;8.75
44933;PMS3003;30667;43.614;1.442;2024-03-02T02:22:55;16.50;14.25;7.00
44933;PMS3003;30667;43.614;1.442;2024-03-02T02:25:21;18.20;15.80;8.80
44933;PMS3003;30667;43.614;1.442;2024-03-02T02:27:46;13.75;11.00;6.25
44933;PMS3003;30667;43.614;1.442;2024-03-02T02:30:12;14.00;13.00;6.00
44933;PMS3003;30667;43.614;1.442;2024-03-02T02:32:37;13.50;11.00;6.00
44933;PMS3003;30667;43.614;1.442;2024-03-02T02:35:04;11.80;10.60;6.00
44933;PMS3003;30667;43.614;1.442;2024-03-02T02:37:29;13.80;13.80;8.80
44933;PMS3003;30667;43.614;1.442;2024-03-02T02:39:55;13.00;11.00;6.75
44933;PMS3003;30667;43.614;1.442;2024-03-02T02:42:20;14.50;12.75;7.00
44933;PMS3003;30667;43.614;1.442;2024-03-02T02:44:45;17.25;15.75;8.25
44933;PMS3003;30667;43.614;1.442;2024-03-02T02:47:11;12.75;12.75;7.25
44933;PMS3003;30667;43.614;1.442;2024-03-02T02:49:36;17.75;14.50;9.00
44933;PMS3003;30667;43.614;1.442;2024-03-02T02:52:02;14.25;13.00;7.00
44933;PMS3003;30667;43.614;1.442;2024-03-02T02:54:28;15.00;13.80;7.20
44933;PMS3003;30667;43.614;1.442;2024-03-02T02:56:53;15.25;14.00;8.75
44933;PMS3003;30667;43.614;1.442;2024-03-02T02:59:18;16.50;14.75;8.75
44933;PMS3003;30667;43.614;1.442;2024-03-02T03:01:44;16.50;15.25;9.50
44933;PMS3003;30667;43.614;1.442;2024-03-02T03:04:09;16.00;14.25;8.25
44933;PMS3003;30667;43.614;1.442;2024-03-02T03:06:34;18.00;15.00;9.50
44933;PMS3003;30667;43.614;1.442;2024-03-02T03:09:00;18.75;17.75;9.00
44933;PMS3003;30667;43.614;1.442;2024-03-02T03:11:25;14.75;14.00;7.25
44933;PMS3003;30667;43.614;1.442;2024-03-02T03:13:51;18.20;16.20;9.80
44933;PMS3003;30667;43.614;1.442;2024-03-02T03:16:18;18.20;17.20;10.40
44933;PMS3003;30667;43.614;1.442;2024-03-02T03:18:43;19.50;16.75;10.00
44933;PMS3003;30667;43.614;1.442;2024-03-02T03:21:08;20.75;17.00;9.25
44933;PMS3003;30667;43.614;1.442;2024-03-02T03:23:34;16.00;14.00;9.00
44933;PMS3003;30667;43.614;1.442;2024-03-02T03:25:59;17.25;15.00;9.50
44933;PMS3003;30667;43.614;1.442;2024-03-02T03:28:24;15.75;14.75;9.00
44933;PMS3003;30667;43.614;1.442;2024-03-02T03:30:50;17.75;16.50;10.00
44933;PMS3003;30667;43.614;1.442;2024-03-02T03:33:15;14.50;14.50;9.25
44933;PMS3003;30667;43.614;1.442;2024-03-02T03:35:40;20.75;17.00;9.75
44933;PMS3003;30667;43.614;1.442;2024-03-02T03:38:06;18.75;14.00;9.00
44933;PMS3003;30667;43.614;1.442;2024-03-02T03:40:31;15.75;15.00;9.50
44933;PMS3003;30667;43.614;1.442;2024-03-02T03:42:57;18.50;17.00;10.00
44933;PMS3003;30667;43.614;1.442;2024-03-02T03:45:23;17.60;16.80;9.80
44933;PMS3003;30667;43.614;1.442;2024-03-02T03:47:50;16.60;15.20;9.00
44933;PMS3003;30667;43.614;1.442;2024-03-02T03:50:16;14.25;14.00;9.50
44933;PMS3003;30667;43.614;1.442;2024-03-02T03:52:41;16.25;14.75;9.00
44933;PMS3003;30667;43.614;1.442;2024-03-02T03:55:07;15.50;14.00;9.00
44933;PMS3003;30667;43.614;1.442;2024-03-02T03:57:33;20.60;15.20;9.00
44933;PMS3003;30667;43.614;1.442;2024-03-02T03:59:58;14.25;12.75;7.00
44933;PMS3003;30667;43.614;1.442;2024-03-02T04:02:24;17.00;15.60;9.40
44933;PMS3003;30667;43.614;1.442;2024-03-02T04:04:50;14.00;14.00;7.25
44933;PMS3003;30667;43.614;1.442;2024-03-02T04:07:15;15.25;13.75;8.00
44933;PMS3003;30667;43.614;1.442;2024-03-02T04:09:41;14.50;14.25;9.00
44933;PMS3003;30667;43.614;1.442;2024-03-02T04:12:06;18.25;17.25;10.00
44933;PMS3003;30667;43.614;1.442;2024-03-02T04:14:32;15.00;15.00;9.00
44933;PMS3003;30667;43.614;1.442;2024-03-02T04:16:57;18.00;16.50;10.25
44933;PMS3003;30667;43.614;1.442;2024-03-02T04:19:24;17.80;15.20;9.00
44933;PMS3003;30667;43.614;1.442;2024-03-02T04:21:49;18.00;17.75;9.25
44933;PMS3003;30667;43.614;1.442;2024-03-02T04:24:14;17.25;17.00;10.25
44933;PMS3003;30667;43.614;1.442;2024-03-02T04:26:40;20.00;18.00;10.00
44933;PMS3003;30667;43.614;1.442;2024-03-02T04:29:05;13.75;11.50;7.00
44933;PMS3003;30667;43.614;1.442;2024-03-02T04:31:30;14.25;13.00;9.00
44933;PMS3003;30667;43.614;1.442;2024-03-02T04:33:56;14.25;11.00;7.00
44933;PMS3003;30667;43.614;1.442;2024-03-02T04:36:21;14.75;13.25;7.50
44933;PMS3003;30667;43.614;1.442;2024-03-02T04:38:46;14.00;13.75;8.50
44933;PMS3003;30667;43.614;1.442;2024-03-02T04:41:12;13.75;13.00;7.00
44933;PMS3003;30667;43.614;1.442;2024-03-02T04:43:37;14.75;13.75;7.25
44933;PMS3003;30667;43.614;1.442;2024-03-02T04:46:02;13.75;13.00;6.00
44933;PMS3003;30667;43.614;1.442;2024-03-02T04:48:28;12.25;12.25;6.75
44933;PMS3003;30667;43.614;1.442;2024-03-02T04:50:53;13.00;11.75;6.00
44933;PMS3003;30667;43.614;1.442;2024-03-02T04:53:19;14.75;13.00;7.00
44933;PMS3003;30667;43.614;1.442;2024-03-02T04:55:44;13.75;13.25;7.25
44933;PMS3003;30667;43.614;1.442;2024-03-02T04:58:21;14.00;13.00;7.60
44933;PMS3003;30667;43.614;1.442;2024-03-02T05:00:47;12.20;11.80;6.00
44933;PMS3003;30667;43.614;1.442;2024-03-02T05:03:12;12.50;12.50;7.25
44933;PMS3003;30667;43.614;1.442;2024-03-02T05:05:38;10.80;9.80;5.20
44933;PMS3003;30667;43.614;1.442;2024-03-02T05:08:04;12.00;11.75;6.75
44933;PMS3003;30667;43.614;1.442;2024-03-02T05:10:29;12.25;12.25;6.75
44933;PMS3003;30667;43.614;1.442;2024-03-02T05:12:54;14.50;11.25;6.00
44933;PMS3003;30667;43.614;1.442;2024-03-02T05:15:24;17.80;13.60;8.00
44933;PMS3003;30667;43.614;1.442;2024-03-02T05:17:49;13.00;11.75;7.25
44933;PMS3003;30667;43.614;1.442;2024-03-02T05:20:15;14.00;13.75;6.00
44933;PMS3003;30667;43.614;1.442;2024-03-02T05:22:40;14.00;13.00;7.00
44933;PMS3003;30667;43.614;1.442;2024-03-02T05:25:06;12.75;12.00;6.00
44933;PMS3003;30667;43.614;1.442;2024-03-02T05:27:32;13.20;13.20;7.00
44933;PMS3003;30667;43.614;1.442;2024-03-02T05:29:58;18.50;15.50;7.00
44933;PMS3003;30667;43.614;1.442;2024-03-02T05:32:24;12.80;11.80;6.60
44933;PMS3003;30667;43.614;1.442;2024-03-02T05:34:49;13.75;13.75;8.50
44933;PMS3003;30667;43.614;1.442;2024-03-02T05:37:15;13.60;11.80;5.80
44933;PMS3003;30667;43.614;1.442;2024-03-02T05:39:41;12.60;10.80;5.80
44933;PMS3003;30667;43.614;1.442;2024-03-02T05:42:08;12.40;12.00;7.60
44933;PMS3003;30667;43.614;1.442;2024-03-02T05:44:34;12.00;10.00;5.50
44933;PMS3003;30667;43.614;1.442;2024-03-02T05:46:59;11.20;9.40;6.00
44933;PMS3003;30667;43.614;1.442;2024-03-02T05:49:25;11.25;11.25;6.25
44933;PMS3003;30667;43.614;1.442;2024-03-02T05:51:50;11.25;9.00;4.00
44933;PMS3003;30667;43.614;1.442;2024-03-02T05:54:15;11.50;9.50;5.75
44933;PMS3003;30667;43.614;1.442;2024-03-02T05:56:41;11.00;10.00;5.00
44933;PMS3003;30667;43.614;1.442;2024-03-02T05:59:06;9.25;9.25;5.00
44933;PMS3003;30667;43.614;1.442;2024-03-02T06:01:46;10.00;10.00;5.80
44933;PMS3003;30667;43.614;1.442;2024-03-02T06:04:13;12.60;10.60;5.20
44933;PMS3003;30667;43.614;1.442;2024-03-02T06:06:39;11.00;10.20;5.00
44933;PMS3003;30667;43.614;1.442;2024-03-02T06:09:05;10.00;10.00;5.20
44933;PMS3003;30667;43.614;1.442;2024-03-02T06:11:37;9.40;8.60;5.00
44933;PMS3003;30667;43.614;1.442;2024-03-02T06:14:06;11.00;10.00;4.80
44933;PMS3003;30667;43.614;1.442;2024-03-02T06:16:32;11.00;10.20;5.00
44933;PMS3003;30667;43.614;1.442;2024-03-02T06:18:59;10.00;9.20;4.60
44933;PMS3003;30667;43.614;1.442;2024-03-02T06:21:25;10.00;10.00;5.20
44933;PMS3003;30667;43.614;1.442;2024-03-02T06:23:51;10.60;9.40;5.00
44933;PMS3003;30667;43.614;1.442;2024-03-02T06:26:16;10.50;9.25;5.00
44933;PMS3003;30667;43.614;1.442;2024-03-02T06:28:42;10.20;9.00;5.00
44933;PMS3003;30667;43.614;1.442;2024-03-02T06:31:08;10.25;10.25;6.00
44933;PMS3003;30667;43.614;1.442;2024-03-02T06:33:34;13.20;11.00;5.00
44933;PMS3003;30667;43.614;1.442;2024-03-02T06:35:59;11.00;9.00;4.80
44933;PMS3003;30667;43.614;1.442;2024-03-02T06:38:25;8.25;7.00;5.00
44933;PMS3003;30667;43.614;1.442;2024-03-02T06:40:51;9.25;7.00;3.75
44933;PMS3003;30667;43.614;1.442;2024-03-02T06:43:16;10.00;9.00;3.75
44933;PMS3003;30667;43.614;1.442;2024-03-02T06:45:41;11.50;9.25;5.00
44933;PMS3003;30667;43.614;1.442;2024-03-02T06:48:07;11.50;10.25;5.75
44933;PMS3003;30667;43.614;1.442;2024-03-02T06:50:32;10.00;10.00;6.00
44933;PMS3003;30667;43.614;1.442;2024-03-02T06:52:58;10.00;10.00;5.00
44933;PMS3003;30667;43.614;1.442;2024-03-02T06:55:23;10.00;9.75;5.25
44933;PMS3003;30667;43.614;1.442;2024-03-02T06:57:51;10.00;10.00;5.00
44933;PMS3003;30667;43.614;1.442;2024-03-02T07:00:17;11.00;9.75;5.50
44933;PMS3003;30667;43.614;1.442;2024-03-02T07:02:45;13.20;11.80;6.00
44933;PMS3003;30667;43.614;1.442;2024-03-02T07:05:10;12.75;11.50;5.75
44933;PMS3003;30667;43.614;1.442;2024-03-02T07:07:36;9.00;9.00;5.00
44933;PMS3003;30667;43.614;1.442;2024-03-02T07:10:05;11.40;10.20;5.80
44933;PMS3003;30667;43.614;1.442;2024-03-02T07:12:32;9.00;9.00;4.60
44933;PMS3003;30667;43.614;1.442;2024-03-02T07:14:58;12.00;9.75;5.00
44933;PMS3003;30667;43.614;1.442;2024-03-02T07:17:29;10.60;9.80;5.60
44933;PMS3003;30667;43.614;1.442;2024-03-02T07:19:55;10.00;8.60;5.00
44933;PMS3003;30667;43.614;1.442;2024-03-02T07:22:21;10.00;9.80;6.00
44933;PMS3003;30667;43.614;1.442;2024-03-02T07:24:47;14.00;11.00;5.60
44933;PMS3003;30667;43.614;1.442;2024-03-02T07:27:14;7.80;7.40;4.20
44933;PMS3003;30667;43.614;1.442;2024-03-02T07:29:40;9.00;9.00;5.00
44933;PMS3003;30667;43.614;1.442;2024-03-02T07:32:06;7.75;7.00;3.00
44933;PMS3003;30667;43.614;1.442;2024-03-02T07:34:33;8.80;8.80;3.00
44933;PMS3003;30667;43.614;1.442;2024-03-02T07:36:58;7.00;7.00;3.00
44933;PMS3003;30667;43.614;1.442;2024-03-02T07:39:33;8.75;8.25;3.00
44933;PMS3003;30667;43.614;1.442;2024-03-02T07:41:59;10.60;9.40;5.00
44933;PMS3003;30667;43.614;1.442;2024-03-02T07:44:28;10.60;7.40;4.20
44933;PMS3003;30667;43.614;1.442;2024-03-02T07:46:53;10.25;10.00;4.50
44933;PMS3003;30667;43.614;1.442;2024-03-02T07:49:19;10.00;9.00;3.50
44933;PMS3003;30667;43.614;1.442;2024-03-02T07:51:44;10.25;7.00;3.00
44933;PMS3003;30667;43.614;1.442;2024-03-02T07:54:09;10.00;9.00;5.00
44933;PMS3003;30667;43.614;1.442;2024-03-02T07:56:35;10.50;8.75;4.00
44933;PMS3003;30667;43.614;1.442;2024-03-02T07:59:01;10.00;9.00;4.00
44933;PMS3003;30667;43.614;1.442;2024-03-02T08:01:28;11.00;8.80;5.00
44933;PMS3003;30667;43.614;1.442;2024-03-02T08:03:57;10.80;8.80;5.00
44933;PMS3003;30667;43.614;1.442;2024-03-02T08:06:26;7.20;7.20;4.60
44933;PMS3003;30667;43.614;1.442;2024-03-02T08:09:01;9.00;9.00;5.00
44933;PMS3003;30667;43.614;1.442;2024-03-02T08:11:27;10.40;8.80;4.20
44933;PMS3003;30667;43.614;1.442;2024-03-02T08:13:52;7.00;7.00;3.00
44933;PMS3003;30667;43.614;1.442;2024-03-02T08:16:20;10.40;9.80;3.80
44933;PMS3003;30667;43.614;1.442;2024-03-02T08:18:47;6.80;6.80;3.40
44933;PMS3003;30667;43.614;1.442;2024-03-02T08:21:13;11.00;10.40;5.00
44933;PMS3003;30667;43.614;1.442;2024-03-02T08:23:39;10.60;10.20;5.20
44933;PMS3003;30667;43.614;1.442;2024-03-02T08:26:07;6.60;6.60;3.00
44933;PMS3003;30667;43.614;1.442;2024-03-02T08:28:32;9.00;7.50;3.00
44933;PMS3003;30667;43.614;1.442;2024-03-02T08:31:05;9.20;8.20;5.00
44933;PMS3003;30667;43.614;1.442;2024-03-02T08:33:31;6.75;6.75;4.00
44933;PMS3003;30667;43.614;1.442;2024-03-02T08:35:56;8.25;8.00;3.50
44933;PMS3003;30667;43.614;1.442;2024-03-02T08:38:22;8.75;8.75;5.00
44933;PMS3003;30667;43.614;1.442;2024-03-02T08:40:47;7.50;7.00;3.00
44933;PMS3003;30667;43.614;1.442;2024-03-02T08:43:14;11.80;10.00;6.00
44933;PMS3003;30667;43.614;1.442;2024-03-02T08:45:40;7.75;7.25;4.50
44933;PMS3003;30667;43.614;1.442;2024-03-02T08:48:07;7.20;7.20;3.80
44933;PMS3003;30667;43.614;1.442;2024-03-02T08:50:36;7.40;6.80;3.00
44933;PMS3003;30667;43.614;1.442;2024-03-02T08:53:04;9.00;7.00;3.00
44933;PMS3003;30667;43.614;1.442;2024-03-02T08:55:30;7.40;7.00;3.00
44933;PMS3003;30667;43.614;1.442;2024-03-02T08:57:56;9.00;9.00;3.00
44933;PMS3003;30667;43.614;1.442;2024-03-02T09:00:22;8.60;8.40;3.00
44933;PMS3003;30667;43.614;1.442;2024-03-02T09:02:48;8.40;7.00;3.00
44933;PMS3003;30667;43.614;1.442;2024-03-02T09:05:14;9.40;8.60;5.00
44933;PMS3003;30667;43.614;1.442;2024-03-02T09:07:40;8.80;7.20;3.00
44933;PMS3003;30667;43.614;1.442;2024-03-02T09:10:05;12.25;10.00;3.50
44933;PMS3003;30667;43.614;1.442;2024-03-02T09:12:32;8.20;7.40;2.80
44933;PMS3003;30667;43.614;1.442;2024-03-02T09:14:57;10.60;8.60;3.00
44933;PMS3003;30667;43.614;1.442;2024-03-02T09:17:23;11.20;10.00;3.00
44933;PMS3003;30667;43.614;1.442;2024-03-02T09:19:49;7.75;7.00;4.00
44933;PMS3003;30667;43.614;1.442;2024-03-02T09:22:17;10.00;8.80;5.00
44933;PMS3003;30667;43.614;1.442;2024-03-02T09:24:46;10.00;9.40;3.20
44933;PMS3003;30667;43.614;1.442;2024-03-02T09:27:11;8.50;7.00;5.00
44933;PMS3003;30667;43.614;1.442;2024-03-02T09:29:37;8.50;7.00;2.50
44933;PMS3003;30667;43.614;1.442;2024-03-02T09:32:02;10.25;8.75;6.00
44933;PMS3003;30667;43.614;1.442;2024-03-02T09:34:29;8.60;8.00;3.00
44933;PMS3003;30667;43.614;1.442;2024-03-02T09:36:54;10.25;7.00;5.00
44933;PMS3003;30667;43.614;1.442;2024-03-02T09:39:20;7.25;7.00;4.00
44933;PMS3003;30667;43.614;1.442;2024-03-02T09:41:45;7.50;7.50;3.00
44933;PMS3003;30667;43.614;1.442;2024-03-02T09:44:12;10.80;9.20;5.00
44933;PMS3003;30667;43.614;1.442;2024-03-02T09:46:38;9.75;7.75;3.00
44933;PMS3003;30667;43.614;1.442;2024-03-02T09:49:03;7.75;6.50;3.00
44933;PMS3003;30667;43.614;1.442;2024-03-02T09:51:29;8.00;6.25;3.00
44933;PMS3003;30667;43.614;1.442;2024-03-02T09:53:56;6.60;6.40;2.00
44933;PMS3003;30667;43.614;1.442;2024-03-02T09:56:21;9.50;7.00;3.00
44933;PMS3003;30667;43.614;1.442;2024-03-02T09:58:47;7.75;7.50;3.00
44933;PMS3003;30667;43.614;1.442;2024-03-02T10:01:12;9.50;9.00;4.75
44933;PMS3003;30667;43.614;1.442;2024-03-02T10:03:38;9.50;7.25;5.00
44933;PMS3003;30667;43.614;1.442;2024-03-02T10:06:22;7.75;7.75;3.00
44933;PMS3003;30667;43.614;1.442;2024-03-02T10:08:49;6.60;5.80;3.00
44933;PMS3003;30667;43.614;1.442;2024-03-02T10:11:29;6.60;5.80;2.00
44933;PMS3003;30667;43.614;1.442;2024-03-02T10:14:08;9.00;8.00;3.00
44933;PMS3003;30667;43.614;1.442;2024-03-02T10:16:42;8.20;7.60;3.00
44933;PMS3003;30667;43.614;1.442;2024-03-02T10:19:18;11.20;9.20;3.00
44933;PMS3003;30667;43.614;1.442;2024-03-02T10:24:17;8.00;7.00;3.00
44933;PMS3003;30667;43.614;1.442;2024-03-02T10:26:43;6.80;6.00;3.00
44933;PMS3003;30667;43.614;1.442;2024-03-02T10:29:09;7.00;6.75;3.00
44933;PMS3003;30667;43.614;1.442;2024-03-02T10:31:36;6.60;6.40;2.00
44933;PMS3003;30667;43.614;1.442;2024-03-02T10:34:03;8.20;7.40;3.80
44933;PMS3003;30667;43.614;1.442;2024-03-02T10:36:28;7.00;6.00;3.00
44933;PMS3003;30667;43.614;1.442;2024-03-02T10:38:55;8.00;7.00;3.00
44933;PMS3003;30667;43.614;1.442;2024-03-02T10:41:23;8.40;7.00;3.00
44933;PMS3003;30667;43.614;1.442;2024-03-02T10:43:52;7.80;7.40;3.00
44933;PMS3003;30667;43.614;1.442;2024-03-02T10:46:20;8.00;7.00;3.20
44933;PMS3003;30667;43.614;1.442;2024-03-02T10:48:46;8.75;7.25;3.00
44933;PMS3003;30667;43.614;1.442;2024-03-02T10:51:11;6.75;6.00;2.00
44933;PMS3003;30667;43.614;1.442;2024-03-02T10:53:37;7.00;6.00;3.00
44933;PMS3003;30667;43.614;1.442;2024-03-02T10:56:02;6.25;6.00;2.00
44933;PMS3003;30667;43.614;1.442;2024-03-02T10:58:32;8.20;6.00;3.00
44933;PMS3003;30667;43.614;1.442;2024-03-02T11:01:04;7.80;7.00;2.20
44933;PMS3003;30667;43.614;1.442;2024-03-02T11:03:33;8.00;7.00;3.00
44933;PMS3003;30667;43.614;1.442;2024-03-02T11:06:03;5.60;5.60;2.00
44933;PMS3003;30667;43.614;1.442;2024-03-02T11:08:32;7.00;6.00;2.00
44933;PMS3003;30667;43.614;1.442;2024-03-02T11:11:02;7.20;6.40;3.00
44933;PMS3003;30667;43.614;1.442;2024-03-02T11:13:32;7.60;7.00;2.80
44933;PMS3003;30667;43.614;1.442;2024-03-02T11:15:59;7.60;7.00;3.00
44933;PMS3003;30667;43.614;1.442;2024-03-02T11:18:31;8.00;7.20;3.00
44933;PMS3003;30667;43.614;1.442;2024-03-02T11:20:58;7.60;7.40;2.60
44933;PMS3003;30667;43.614;1.442;2024-03-02T11:23:34;6.20;6.00;1.60
44933;PMS3003;30667;43.614;1.442;2024-03-02T11:28:44;3.80;3.00;1.40
44933;PMS3003;30667;43.614;1.442;2024-03-02T11:31:10;7.00;5.20;2.00
44933;PMS3003;30667;43.614;1.442;2024-03-02T11:33:35;7.00;6.00;2.25
44933;PMS3003;30667;43.614;1.442;2024-03-02T11:36:01;6.00;4.50;1.75
44933;PMS3003;30667;43.614;1.442;2024-03-02T11:38:30;6.75;6.00;3.00
44933;PMS3003;30667;43.614;1.442;2024-03-02T11:40:58;6.20;6.00;2.00
44933;PMS3003;30667;43.614;1.442;2024-03-02T11:43:25;8.40;7.20;2.20
44933;PMS3003;30667;43.614;1.442;2024-03-02T11:46:03;5.80;5.80;2.00
44933;PMS3003;30667;43.614;1.442;2024-03-02T11:48:32;12.20;11.40;7.40
44933;PMS3003;30667;43.614;1.442;2024-03-02T11:50:58;59.00;47.25;33.50
44933;PMS3003;30667;43.614;1.442;2024-03-02T11:53:28;144.75;129.75;98.75
44933;PMS3003;30667;43.614;1.442;2024-03-02T11:55:56;32.60;30.80;20.00
44933;PMS3003;30667;43.614;1.442;2024-03-02T11:58:23;41.00;37.00;25.25
44933;PMS3003;30667;43.614;1.442;2024-03-02T12:00:52;36.00;32.50;22.00
44933;PMS3003;30667;43.614;1.442;2024-03-02T12:03:20;31.60;28.00;17.80
44933;PMS3003;30667;43.614;1.442;2024-03-02T12:05:51;12.40;9.60;5.80
44933;PMS3003;30667;43.614;1.442;2024-03-02T12:08:18;66.00;54.25;38.25
44933;PMS3003;30667;43.614;1.442;2024-03-02T12:10:43;84.50;67.25;53.00
44933;PMS3003;30667;43.614;1.442;2024-03-02T12:13:21;50.25;43.00;32.00
44933;PMS3003;30667;43.614;1.442;2024-03-02T12:15:47;50.00;42.75;30.25
44933;PMS3003;30667;43.614;1.442;2024-03-02T12:18:17;54.75;45.75;31.00
44933;PMS3003;30667;43.614;1.442;2024-03-02T12:20:43;34.00;32.20;22.00
44933;PMS3003;30667;43.614;1.442;2024-03-02T12:23:09;29.50;27.75;20.00
44933;PMS3003;30667;43.614;1.442;2024-03-02T12:25:35;15.40;14.40;8.60
44933;PMS3003;30667;43.614;1.442;2024-03-02T12:28:00;18.00;15.00;9.00
44933;PMS3003;30667;43.614;1.442;2024-03-02T12:30:27;25.00;24.00;17.00
44933;PMS3003;30667;43.614;1.442;2024-03-02T12:32:55;11.60;9.20;5.80
44933;PMS3003;30667;43.614;1.442;2024-03-02T12:35:21;9.00;8.50;3.75
44933;PMS3003;30667;43.614;1.442;2024-03-02T12:37:50;13.75;13.50;9.00
44933;PMS3003;30667;43.614;1.442;2024-03-02T12:40:18;8.80;7.40;4.80
44933;PMS3003;30667;43.614;1.442;2024-03-02T12:42:46;13.40;12.80;7.00
44933;PMS3003;30667;43.614;1.442;2024-03-02T12:45:12;12.40;10.60;5.00
44933;PMS3003;30667;43.614;1.442;2024-03-02T12:47:41;13.00;10.20;7.20
44933;PMS3003;30667;43.614;1.442;2024-03-02T12:50:08;11.00;10.80;4.80
44933;PMS3003;30667;43.614;1.442;2024-03-02T12:52:34;10.00;9.40;5.20
44933;PMS3003;30667;43.614;1.442;2024-03-02T12:55:01;18.80;16.60;10.60
44933;PMS3003;30667;43.614;1.442;2024-03-02T12:57:29;12.80;12.40;7.40
44933;PMS3003;30667;43.614;1.442;2024-03-02T12:59:59;13.40;11.60;5.20
44933;PMS3003;30667;43.614;1.442;2024-03-02T13:02:28;14.00;10.40;5.40
44933;PMS3003;30667;43.614;1.442;2024-03-02T13:04:55;11.20;10.80;7.20
44933;PMS3003;30667;43.614;1.442;2024-03-02T13:07:26;9.60;8.60;4.00
44933;PMS3003;30667;43.614;1.442;2024-03-02T13:09:52;9.60;8.00;4.00
44933;PMS3003;30667;43.614;1.442;2024-03-02T13:12:20;10.40;10.00;4.80
44933;PMS3003;30667;43.614;1.442;2024-03-02T13:14:49;14.00;11.20;5.20
44933;PMS3003;30667;43.614;1.442;2024-03-02T13:17:17;10.60;8.80;4.00
44933;PMS3003;30667;43.614;1.442;2024-03-02T13:19:50;9.20;8.40;4.00
44933;PMS3003;30667;43.614;1.442;2024-03-02T13:22:25;10.00;8.80;4.00
44933;PMS3003;30667;43.614;1.442;2024-03-02T13:24:51;7.40;7.40;3.00
44933;PMS3003;30667;43.614;1.442;2024-03-02T13:27:19;8.20;6.80;2.80
44933;PMS3003;30667;43.614;1.442;2024-03-02T13:29:45;6.80;6.20;3.00
44933;PMS3003;30667;43.614;1.442;2024-03-02T13:32:14;6.40;6.40;3.00
44933;PMS3003;30667;43.614;1.442;2024-03-02T13:34:40;6.80;5.60;3.00
44933;PMS3003;30667;43.614;1.442;2024-03-02T13:37:06;7.60;7.60;3.00
44933;PMS3003;30667;43.614;1.442;2024-03-02T13:39:32;6.80;5.60;3.00
44933;PMS3003;30667;43.614;1.442;2024-03-02T13:42:04;6.80;5.80;3.00
44933;PMS3003;30667;43.614;1.442;2024-03-02T13:44:32;7.20;5.00;2.80
44933;PMS3003;30667;43.614;1.442;2024-03-02T13:46:58;5.25;5.00;2.00
44933;PMS3003;30667;43.614;1.442;2024-03-02T13:49:25;6.20;5.00;2.20
44933;PMS3003;30667;43.614;1.442;2024-03-02T13:51:58;8.00;7.00;2.00
44933;PMS3003;30667;43.614;1.442;2024-03-02T13:54:36;5.80;4.80;2.20
44933;PMS3003;30667;43.614;1.442;2024-03-02T13:57:03;7.20;5.40;2.00
44933;PMS3003;30667;43.614;1.442;2024-03-02T13:59:28;5.80;4.40;2.00
44933;PMS3003;30667;43.614;1.442;2024-03-02T14:01:54;7.75;6.75;2.00
44933;PMS3003;30667;43.614;1.442;2024-03-02T14:04:19;7.75;7.75;3.50
44933;PMS3003;30667;43.614;1.442;2024-03-02T14:06:45;5.25;5.00;2.00
44933;PMS3003;30667;43.614;1.442;2024-03-02T14:09:11;6.60;5.20;2.00